createdAt,value
2023-02-04T00:00:18.320Z,85.83
2023-02-04T00:03:41.497Z,85.83
2023-02-04T00:06:44.652Z,85.83
2023-02-04T00:09:49.868Z,85.86
2023-02-04T00:12:53.082Z,85.88
2023-02-04T00:15:56.299Z,85.90
2023-02-04T00:18:59.618Z,85.90
2023-02-04T00:22:04.014Z,85.87
2023-02-04T00:25:07.829Z,85.82
2023-02-04T00:28:11.110Z,85.82
2023-02-04T00:31:14.402Z,85.80
2023-02-04T00:34:18.492Z,85.80
2023-02-04T00:37:22.402Z,85.74
2023-02-04T00:40:25.597Z,85.69
2023-02-04T00:43:28.819Z,85.73
2023-02-04T00:46:32.197Z,85.75
2023-02-04T00:49:35.462Z,85.82
2023-02-04T00:52:38.662Z,85.81
2023-02-04T00:55:42.170Z,85.83
2023-02-04T00:58:45.441Z,85.78
2023-02-04T01:01:48.674Z,85.83
2023-02-04T01:04:51.907Z,85.84
2023-02-04T01:07:55.149Z,85.89
2023-02-04T01:10:58.507Z,85.85
2023-02-04T01:14:02.691Z,85.73
2023-02-04T01:17:06.216Z,85.62
2023-02-04T01:20:10.776Z,85.59
2023-02-04T01:23:14.014Z,85.53
2023-02-04T01:26:19.086Z,85.39
2023-02-04T01:29:22.314Z,85.32
2023-02-04T01:32:27.223Z,85.29
2023-02-04T01:35:30.482Z,85.25
2023-02-04T01:38:34.066Z,85.21
2023-02-04T01:41:37.415Z,85.25
2023-02-04T01:44:40.973Z,85.27
2023-02-04T01:47:46.018Z,85.26
2023-02-04T01:50:51.016Z,85.26
2023-02-04T01:53:55.438Z,85.23
2023-02-04T01:56:58.707Z,85.22
2023-02-04T02:00:01.949Z,85.13
2023-02-04T02:03:15.283Z,85.04
2023-02-04T02:06:19.710Z,84.88
2023-02-04T02:09:23.850Z,84.76
2023-02-04T02:12:27.108Z,84.68
2023-02-04T02:15:30.387Z,84.60
2023-02-04T02:18:33.834Z,84.54
2023-02-04T02:21:43.828Z,84.51
2023-02-04T02:24:47.075Z,84.47
2023-02-04T02:27:50.501Z,84.46
2023-02-04T02:30:53.888Z,84.47
2023-02-04T02:33:57.367Z,84.47
2023-02-04T02:37:02.190Z,84.47
2023-02-04T02:40:07.067Z,84.45
2023-02-04T02:43:16.382Z,84.44
2023-02-04T02:46:19.741Z,84.42
2023-02-04T02:49:23.579Z,84.42
2023-02-04T02:52:26.918Z,84.41
2023-02-04T02:55:30.713Z,84.42
2023-02-04T02:58:36.479Z,84.43
2023-02-04T03:01:40.285Z,84.44
2023-02-04T03:04:48.518Z,84.44
2023-02-04T03:07:52.328Z,84.45
2023-02-04T03:10:55.876Z,84.46
2023-02-04T03:14:04.007Z,84.46
2023-02-04T03:17:10.219Z,84.44
2023-02-04T03:20:15.615Z,84.43
2023-02-04T03:23:20.311Z,84.43
2023-02-04T03:26:25.797Z,84.44
2023-02-04T03:29:29.920Z,84.45
2023-02-04T03:32:33.359Z,84.45
2023-02-04T03:35:36.576Z,84.43
2023-02-04T03:38:39.846Z,84.40
2023-02-04T03:41:43.376Z,84.30
2023-02-04T03:44:46.613Z,84.18
2023-02-04T03:47:49.760Z,84.02
2023-02-04T03:50:53.011Z,83.86
2023-02-04T03:53:56.254Z,83.74
2023-02-04T03:56:59.582Z,83.60
2023-02-04T04:00:02.858Z,83.48
2023-02-04T04:03:14.966Z,83.33
2023-02-04T04:06:18.459Z,83.20
2023-02-04T04:09:21.983Z,83.12
2023-02-04T04:12:25.478Z,82.98
2023-02-04T04:15:28.836Z,82.87
2023-02-04T04:18:33.061Z,82.74
2023-02-04T04:21:36.261Z,82.66
2023-02-04T04:24:39.476Z,82.47
2023-02-04T04:27:42.742Z,82.45
2023-02-04T04:30:46.035Z,82.43
2023-02-04T04:33:49.240Z,82.40
2023-02-04T04:36:52.445Z,82.35
2023-02-04T04:39:55.749Z,82.24
2023-02-04T04:42:58.975Z,82.14
2023-02-04T04:46:02.153Z,82.13
2023-02-04T04:49:05.318Z,82.10
2023-02-04T04:52:08.542Z,82.02
2023-02-04T04:55:11.769Z,81.99
2023-02-04T04:58:14.976Z,81.98
2023-02-04T05:01:19.139Z,81.87
2023-02-04T05:04:22.536Z,81.77
2023-02-04T05:07:25.953Z,81.65
2023-02-04T05:10:29.332Z,81.56
2023-02-04T05:13:32.783Z,81.48
2023-02-04T05:16:36.122Z,81.35
2023-02-04T05:19:39.510Z,81.28
2023-02-04T05:22:42.841Z,81.21
2023-02-04T05:25:46.152Z,81.14
2023-02-04T05:28:49.536Z,81.03
2023-02-04T05:31:52.937Z,80.96
2023-02-04T05:34:56.279Z,80.80
2023-02-04T05:37:59.703Z,80.64
2023-02-04T05:41:03.047Z,80.52
2023-02-04T05:44:06.429Z,80.47
2023-02-04T05:47:09.800Z,80.37
2023-02-04T05:50:13.455Z,80.37
2023-02-04T05:53:30.574Z,80.13
2023-02-04T05:56:34.004Z,80.02
2023-02-04T05:59:37.344Z,80.05
2023-02-04T06:02:40.649Z,79.99
2023-02-04T06:05:44.379Z,79.88
2023-02-04T06:08:47.782Z,79.86
2023-02-04T06:11:51.180Z,79.77
2023-02-04T06:14:54.571Z,79.78
2023-02-04T06:17:58.581Z,79.72
2023-02-04T06:21:04.764Z,79.69
2023-02-04T06:24:08.143Z,79.69
2023-02-04T06:27:11.637Z,79.61
2023-02-04T06:30:16.281Z,79.54
2023-02-04T06:33:19.685Z,79.44
2023-02-04T06:36:22.979Z,79.33
2023-02-04T06:39:26.437Z,79.25
2023-02-04T06:50:00.068Z,79.14
2023-02-04T06:53:03.479Z,79.03
2023-02-04T06:56:06.980Z,78.95
2023-02-04T06:59:11.202Z,78.89
2023-02-04T07:02:14.507Z,78.81
2023-02-04T07:05:17.993Z,78.67
2023-02-04T07:08:24.037Z,78.61
2023-02-04T07:11:27.230Z,78.55
2023-02-04T07:14:30.433Z,78.45
2023-02-04T07:17:33.685Z,78.44
2023-02-04T07:20:36.996Z,78.34
2023-02-04T07:23:40.281Z,78.27
2023-02-04T07:26:43.598Z,78.24
2023-02-04T07:29:46.990Z,78.19
2023-02-04T07:32:50.299Z,78.06
2023-02-04T07:35:53.525Z,77.99
2023-02-04T07:38:56.693Z,77.97
2023-02-04T07:41:59.918Z,77.99
2023-02-04T07:45:08.787Z,77.96
2023-02-04T07:48:12.074Z,77.93
2023-02-04T07:51:15.397Z,77.84
2023-02-04T07:54:18.711Z,77.72
2023-02-04T07:57:21.917Z,77.70
2023-02-04T08:00:25.361Z,77.70
2023-02-04T08:03:28.659Z,77.63
2023-02-04T08:06:31.902Z,77.61
2023-02-04T08:09:35.123Z,77.50
2023-02-04T08:12:38.468Z,77.44
2023-02-04T08:15:41.855Z,77.29
2023-02-04T08:18:47.830Z,77.25
2023-02-04T08:21:51.253Z,77.10
2023-02-04T08:24:54.554Z,77.08
2023-02-04T08:27:57.832Z,77.08
2023-02-04T08:31:01.179Z,77.08
2023-02-04T08:34:05.895Z,77.16
2023-02-04T08:37:09.066Z,77.11
2023-02-04T08:40:12.523Z,77.00
2023-02-04T08:43:15.763Z,76.89
2023-02-04T08:46:19.140Z,76.69
2023-02-04T08:49:22.444Z,76.56
2023-02-04T08:52:25.699Z,76.34
2023-02-04T08:55:28.923Z,76.22
2023-02-04T08:58:32.340Z,76.10
2023-02-04T09:01:35.582Z,76.07
2023-02-04T09:04:39.009Z,75.87
2023-02-04T09:07:42.267Z,75.78
2023-02-04T09:10:45.522Z,75.76
2023-02-04T09:13:48.769Z,75.72
2023-02-04T09:16:52.000Z,75.55
2023-02-04T09:19:55.169Z,75.17
2023-02-04T09:22:58.396Z,75.04
2023-02-04T09:26:01.641Z,74.88
2023-02-04T09:29:05.047Z,74.79
2023-02-04T09:32:08.370Z,74.67
2023-02-04T09:35:11.635Z,74.51
2023-02-04T09:38:15.046Z,74.14
2023-02-04T09:41:18.506Z,74.02
2023-02-04T09:44:32.163Z,74.07
2023-02-04T09:47:36.578Z,73.98
2023-02-04T09:50:40.002Z,73.77
2023-02-04T09:53:43.554Z,73.43
2023-02-04T09:56:48.401Z,73.12
2023-02-04T09:59:53.842Z,72.98
2023-02-04T10:03:02.822Z,72.73
2023-02-04T10:06:08.770Z,72.47
2023-02-04T10:09:12.969Z,72.15
2023-02-04T10:12:16.537Z,72.06
2023-02-04T10:15:20.893Z,72.06
2023-02-04T10:18:28.921Z,71.48
2023-02-04T10:21:36.888Z,71.28
2023-02-04T10:24:40.119Z,71.43
2023-02-04T10:27:52.208Z,71.25
2023-02-04T10:30:55.542Z,71.02
2023-02-04T10:34:19.959Z,70.74
2023-02-04T10:37:23.249Z,70.55
2023-02-04T10:40:36.541Z,70.70
2023-02-04T10:43:39.845Z,70.60
2023-02-04T10:46:43.213Z,70.41
2023-02-04T10:50:06.262Z,70.40
2023-02-04T10:53:30.093Z,70.13
2023-02-04T10:56:33.418Z,69.95
2023-02-04T10:59:37.117Z,70.12
2023-02-04T11:02:44.898Z,69.61
2023-02-04T11:05:48.236Z,69.63
2023-02-04T11:08:53.689Z,69.10
2023-02-04T11:11:58.329Z,69.22
2023-02-04T11:15:01.575Z,69.04
2023-02-04T11:18:11.371Z,68.53
2023-02-04T11:21:36.363Z,68.12
2023-02-04T11:24:39.681Z,68.24
2023-02-04T11:27:43.955Z,68.13
2023-02-04T11:30:58.769Z,67.47
2023-02-04T11:34:18.642Z,67.09
2023-02-04T11:37:34.163Z,66.93
2023-02-04T11:40:38.665Z,66.72
2023-02-04T11:43:41.932Z,66.49
2023-02-04T11:46:51.564Z,66.39
2023-02-04T11:50:04.504Z,66.08
2023-02-04T11:53:11.629Z,65.80
2023-02-04T11:56:19.239Z,65.77
2023-02-04T11:59:22.546Z,65.40
2023-02-04T12:02:26.531Z,65.30
2023-02-04T12:05:41.909Z,65.25
2023-02-04T12:08:45.166Z,65.31
2023-02-04T12:12:02.826Z,65.22
2023-02-04T12:15:16.394Z,65.06
2023-02-04T12:18:19.579Z,64.54
2023-02-04T12:21:23.684Z,64.84
2023-02-04T12:24:27.342Z,65.25
2023-02-04T12:27:30.550Z,65.38
2023-02-04T12:30:33.741Z,65.35
2023-02-04T12:33:36.975Z,65.50
2023-02-04T12:36:40.402Z,65.58
2023-02-04T12:39:43.596Z,65.45
2023-02-04T12:42:46.902Z,65.46
2023-02-04T12:45:50.198Z,65.43
2023-02-04T12:48:53.541Z,65.59
2023-02-04T12:51:59.263Z,65.67
2023-02-04T12:55:04.995Z,65.64
2023-02-04T12:58:08.537Z,65.64
2023-02-04T13:01:11.854Z,65.98
2023-02-04T13:04:15.084Z,66.24
2023-02-04T13:07:18.448Z,66.36
2023-02-04T13:10:23.989Z,66.29
2023-02-04T13:13:27.178Z,66.42
2023-02-04T13:16:30.365Z,66.40
2023-02-04T13:19:34.166Z,66.32
2023-02-04T13:22:37.396Z,66.32
2023-02-04T13:25:40.945Z,66.24
2023-02-04T13:28:44.095Z,66.30
2023-02-04T13:31:47.283Z,66.28
2023-02-04T13:34:50.586Z,66.18
2023-02-04T13:37:55.694Z,66.41
2023-02-04T13:40:59.687Z,66.43
2023-02-04T13:44:04.322Z,66.40
2023-02-04T13:47:07.628Z,66.57
2023-02-04T13:50:10.894Z,66.68
2023-02-04T13:53:14.085Z,66.84
2023-02-04T13:56:17.361Z,66.99
2023-02-04T13:59:21.103Z,67.05
2023-02-04T14:02:25.318Z,67.17
2023-02-04T14:05:28.660Z,67.28
2023-02-04T14:08:31.992Z,67.43
2023-02-04T14:11:35.553Z,67.61
2023-02-04T14:14:38.805Z,67.74
2023-02-04T14:17:42.057Z,67.85
2023-02-04T14:20:45.399Z,68.00
2023-02-04T14:23:48.766Z,68.05
2023-02-04T14:26:52.181Z,68.09
2023-02-04T14:29:55.440Z,68.20
2023-02-04T14:32:58.999Z,68.21
2023-02-04T14:36:02.160Z,68.29
2023-02-04T14:39:05.596Z,68.36
2023-02-04T14:42:08.867Z,68.62
2023-02-04T14:45:13.780Z,68.82
2023-02-04T14:48:17.180Z,69.02
2023-02-04T14:51:20.425Z,69.31
2023-02-04T14:54:24.021Z,69.60
2023-02-04T14:57:27.222Z,69.86
2023-02-04T15:00:30.657Z,70.08
2023-02-04T15:03:33.989Z,70.19
2023-02-04T15:06:37.875Z,70.35
2023-02-04T15:09:42.556Z,70.50
2023-02-04T15:12:45.839Z,70.68
2023-02-04T15:15:49.096Z,70.79
2023-02-04T15:18:52.596Z,70.70
2023-02-04T15:21:55.815Z,70.62
2023-02-04T15:24:59.140Z,70.52
2023-02-04T15:28:02.422Z,70.44
2023-02-04T15:31:05.942Z,70.39
2023-02-04T15:34:09.159Z,70.30
2023-02-04T15:37:12.488Z,70.16
2023-02-04T15:40:15.747Z,70.12
2023-02-04T15:43:18.957Z,70.17
2023-02-04T15:46:22.275Z,70.19
2023-02-04T15:49:25.564Z,70.24
2023-02-04T15:52:29.437Z,70.24
2023-02-04T15:55:32.864Z,70.30
2023-02-04T15:58:36.898Z,70.31
2023-02-04T16:01:40.155Z,70.32
2023-02-04T16:04:45.448Z,70.27
2023-02-04T16:07:48.985Z,70.41
2023-02-04T16:10:54.183Z,70.44
2023-02-04T16:13:58.751Z,70.54
2023-02-04T16:17:01.951Z,70.68
2023-02-04T16:20:06.422Z,70.82
2023-02-04T16:23:09.637Z,70.95
2023-02-04T16:26:13.418Z,71.09
2023-02-04T16:29:17.436Z,71.26
2023-02-04T16:32:21.054Z,71.38
2023-02-04T16:35:24.319Z,71.50
2023-02-04T16:38:28.739Z,71.67
2023-02-04T16:41:32.034Z,71.79
2023-02-04T16:44:37.395Z,71.93
2023-02-04T16:47:40.732Z,72.06
2023-02-04T16:50:44.204Z,72.20
2023-02-04T16:53:47.535Z,72.32
2023-02-04T16:56:50.980Z,72.46
2023-02-04T16:59:54.179Z,72.53
2023-02-04T17:02:58.135Z,72.67
2023-02-04T17:06:01.656Z,72.80
2023-02-04T17:09:04.935Z,72.87
2023-02-04T17:12:08.264Z,72.95
2023-02-04T17:15:11.515Z,73.04
2023-02-04T17:18:14.704Z,73.07
2023-02-04T17:21:18.515Z,73.17
2023-02-04T17:24:22.252Z,73.26
2023-02-04T17:27:26.211Z,73.28
2023-02-04T17:30:30.423Z,73.62
2023-02-04T17:33:37.706Z,73.61
2023-02-04T17:36:40.967Z,73.54
2023-02-04T17:39:44.829Z,73.50
2023-02-04T17:42:49.074Z,73.48
2023-02-04T17:45:52.633Z,73.46
2023-02-04T17:48:59.307Z,73.50
2023-02-04T17:52:03.505Z,73.46
2023-02-04T17:55:31.257Z,73.47
2023-02-04T17:58:36.355Z,73.41
2023-02-04T18:01:42.891Z,73.30
2023-02-04T18:04:46.530Z,73.23
2023-02-04T18:07:58.955Z,73.12
2023-02-04T18:11:02.171Z,73.00
2023-02-04T18:14:24.548Z,72.95
2023-02-04T18:17:28.613Z,72.78
2023-02-04T18:20:32.644Z,72.73
2023-02-04T18:23:36.200Z,72.64
2023-02-04T18:26:49.907Z,72.63
2023-02-04T18:29:55.750Z,72.57
2023-02-04T18:32:59.815Z,72.53
2023-02-04T18:36:03.122Z,72.42
2023-02-04T18:39:19.088Z,72.36
2023-02-04T18:42:25.830Z,72.25
2023-02-04T18:45:31.892Z,72.17
2023-02-04T18:49:00.863Z,72.04
2023-02-04T18:52:18.974Z,71.94
2023-02-04T18:55:37.711Z,71.83
2023-02-04T18:58:42.843Z,71.86
2023-02-04T19:01:48.104Z,71.87
2023-02-04T19:04:53.381Z,71.91
2023-02-04T19:08:04.463Z,72.07
2023-02-04T19:11:25.280Z,72.29
2023-02-04T19:14:40.211Z,72.55
2023-02-04T19:17:43.409Z,72.74
2023-02-04T19:20:50.765Z,72.96
2023-02-04T19:24:23.759Z,73.11
2023-02-04T19:27:31.951Z,73.13
2023-02-04T19:30:54.043Z,73.13
2023-02-04T19:33:57.476Z,73.13
2023-02-04T19:37:00.769Z,73.16
2023-02-04T19:40:24.289Z,73.19
2023-02-04T19:43:40.017Z,73.15
2023-02-04T19:46:44.050Z,73.19
2023-02-04T19:49:47.322Z,73.23
2023-02-04T19:53:12.229Z,73.27
2023-02-04T19:56:33.572Z,73.31
2023-02-04T19:59:36.838Z,73.27
2023-02-04T20:02:40.463Z,73.28
2023-02-04T20:05:44.293Z,73.14
2023-02-04T20:08:54.567Z,72.97
2023-02-04T20:12:06.108Z,72.86
2023-02-04T20:15:20.200Z,72.75
2023-02-04T20:18:28.296Z,72.68
2023-02-04T20:21:32.478Z,72.67
2023-02-04T20:24:37.978Z,72.66
2023-02-04T20:27:41.822Z,72.62
2023-02-04T20:30:46.342Z,72.53
2023-02-04T20:33:59.453Z,72.46
2023-02-04T20:37:02.871Z,72.46
2023-02-04T20:40:18.832Z,72.42
2023-02-04T20:43:24.188Z,72.34
2023-02-04T20:46:27.663Z,72.29
2023-02-04T20:49:40.868Z,72.21
2023-02-04T20:52:45.619Z,72.09
2023-02-04T20:55:51.886Z,72.01
2023-02-04T20:59:33.719Z,71.88
2023-02-04T21:02:38.917Z,71.81
2023-02-04T21:05:42.291Z,71.69
2023-02-04T21:08:47.970Z,71.54
2023-02-04T21:11:54.300Z,71.38
2023-02-04T21:14:57.544Z,71.25
2023-02-04T21:18:00.915Z,71.24
2023-02-04T21:21:07.393Z,71.17
2023-02-04T21:24:10.811Z,71.03
2023-02-04T21:27:15.248Z,70.89
2023-02-04T21:30:18.895Z,70.83
2023-02-04T21:33:22.222Z,70.71
2023-02-04T21:36:27.904Z,70.68
2023-02-04T21:39:31.213Z,70.70
2023-02-04T21:42:34.507Z,70.52
2023-02-04T21:45:39.729Z,70.47
2023-02-04T21:48:44.239Z,70.47
2023-02-04T21:51:47.595Z,70.42
2023-02-04T21:54:51.127Z,70.38
2023-02-04T21:57:54.437Z,70.38
2023-02-04T22:00:57.739Z,70.33
2023-02-04T22:04:01.380Z,70.36
2023-02-04T22:07:04.903Z,70.33
2023-02-04T22:10:12.200Z,70.34
2023-02-04T22:13:21.299Z,70.36
2023-02-04T22:16:24.622Z,70.39
2023-02-04T22:19:27.969Z,70.40
2023-02-04T22:22:31.340Z,70.42
2023-02-04T22:25:34.938Z,70.39
2023-02-04T22:28:41.683Z,70.34
2023-02-04T22:31:45.024Z,70.33
2023-02-04T22:35:15.162Z,70.37
2023-02-04T22:38:20.233Z,70.36
2023-02-04T22:41:23.673Z,70.39
2023-02-04T22:44:27.300Z,70.39
2023-02-04T22:47:30.902Z,70.45
2023-02-04T22:50:34.242Z,70.53
2023-02-04T22:53:37.503Z,70.61
2023-02-04T22:56:40.828Z,70.69
2023-02-04T22:59:44.180Z,70.81
2023-02-04T23:02:47.594Z,70.91
2023-02-04T23:05:51.078Z,71.01
2023-02-04T23:08:54.482Z,71.11
2023-02-04T23:11:58.584Z,71.24
2023-02-04T23:15:02.764Z,71.36
2023-02-04T23:18:06.120Z,71.43
2023-02-04T23:21:10.324Z,71.51
2023-02-04T23:24:13.650Z,71.57
2023-02-04T23:27:17.134Z,71.65
2023-02-04T23:30:20.628Z,71.73
2023-02-04T23:33:24.251Z,71.77
2023-02-04T23:36:27.514Z,71.82
2023-02-04T23:39:31.107Z,71.89
2023-02-04T23:42:34.463Z,71.92
2023-02-04T23:45:38.030Z,71.94
2023-02-04T23:48:41.325Z,71.98
2023-02-04T23:51:44.739Z,72.04
2023-02-04T23:54:48.108Z,72.07
2023-02-04T23:57:51.928Z,72.16
